Time;durP1;ratioP1;P1;durP2;ratioP2;P2;SDS_P1;SDS_P2;PMS_P1;PMS_P2;Temp;Humidity;BMP_temperature;BMP_pressure;BME280_temperature;BME280_humidity;BME280_pressure;Samples;Min_cycle;Max_cycle;Signal;HPM_P1;HPM_P2
2021/08/21 00:00:17;;;;;;;3.63;2.70;;;21.90;65.40;;;;;;5053228;28;20037;-78
2021/08/21 00:02:43;;;;;;;4.05;3.00;;;21.80;65.40;;;;;;5053480;28;20048;-77
2021/08/21 00:05:09;;;;;;;3.67;2.80;;;21.90;65.50;;;;;;5033904;28;20065;-77
2021/08/21 00:07:35;;;;;;;4.03;2.97;;;21.80;65.40;;;;;;5019921;28;20091;-77
2021/08/21 00:10:04;;;;;;;3.58;2.75;;;21.80;65.40;;;;;;5054506;28;20029;-76
2021/08/21 00:12:30;;;;;;;3.50;2.60;;;21.70;65.50;;;;;;5052827;28;20040;-76
2021/08/21 00:14:57;;;;;;;3.50;2.70;;;21.70;65.40;;;;;;5053377;28;20033;-77
2021/08/21 00:17:23;;;;;;;3.45;2.65;;;21.70;65.50;;;;;;5037142;28;20037;-77
2021/08/21 00:19:48;;;;;;;3.80;2.83;;;21.70;65.60;;;;;;5052720;28;20021;-77
2021/08/21 00:22:14;;;;;;;4.32;3.22;;;21.60;65.50;;;;;;5036234;28;20029;-77
2021/08/21 00:24:41;;;;;;;3.50;2.55;;;21.60;65.60;;;;;;5053025;28;20033;-76
2021/08/21 00:27:07;;;;;;;3.70;2.83;;;21.60;65.60;;;;;;5045343;28;20078;-77
2021/08/21 00:29:33;;;;;;;3.53;2.58;;;21.50;65.60;;;;;;5036150;28;20125;-76
2021/08/21 00:31:59;;;;;;;4.28;2.88;;;21.50;65.60;;;;;;5052841;28;20025;-77
2021/08/21 00:34:25;;;;;;;3.63;2.78;;;21.50;65.70;;;;;;5052664;28;20041;-76
2021/08/21 00:36:51;;;;;;;4.72;3.08;;;21.50;65.70;;;;;;5054044;28;20033;-77
2021/08/21 00:39:17;;;;;;;3.83;2.95;;;21.50;65.70;;;;;;5036115;28;20091;-78
2021/08/21 00:41:43;;;;;;;4.18;2.95;;;21.40;65.70;;;;;;5033027;28;20044;-76
2021/08/21 00:44:09;;;;;;;4.05;3.20;;;21.40;65.80;;;;;;5032929;28;20539;-77
2021/08/21 00:47:13;;;;;;;3.55;2.85;;;21.40;65.80;;;;;;5052408;28;20102;-77
2021/08/21 00:49:41;;;;;;;3.92;2.67;;;21.30;65.90;;;;;;5045370;28;20040;-76
2021/08/21 00:52:10;;;;;;;4.13;3.05;;;21.30;65.80;;;;;;5035851;28;20037;-77
2021/08/21 00:54:38;;;;;;;4.10;2.92;;;21.30;65.90;;;;;;5051967;28;20118;-77
2021/08/21 00:57:04;;;;;;;3.78;2.83;;;21.30;66.00;;;;;;5033286;28;20044;-76
2021/08/21 00:59:32;;;;;;;4.50;3.10;;;21.30;65.90;;;;;;5052658;28;20021;-76
2021/08/21 01:01:59;;;;;;;3.47;2.63;;;21.20;65.90;;;;;;5052119;28;20025;-76
2021/08/21 01:04:25;;;;;;;4.38;3.08;;;21.20;65.90;;;;;;5016865;28;20124;-76
2021/08/21 01:06:51;;;;;;;4.30;3.10;;;21.20;65.90;;;;;;5035658;28;20067;-77
2021/08/21 01:09:17;;;;;;;3.92;2.97;;;21.20;66.00;;;;;;5035692;28;20482;-77
2021/08/21 01:11:44;;;;;;;4.20;2.85;;;21.10;66.60;;;;;;5035272;28;20040;-77
2021/08/21 01:14:10;;;;;;;4.13;3.15;;;21.10;66.00;;;;;;5052236;28;20036;-77
2021/08/21 01:16:36;;;;;;;3.63;2.78;;;21.10;66.00;;;;;;5035098;28;20029;-76
2021/08/21 01:19:03;;;;;;;3.55;2.90;;;21.10;66.00;;;;;;5019507;28;20029;-76
2021/08/21 01:21:29;;;;;;;3.78;2.97;;;21.00;66.00;;;;;;5015540;28;20032;-77
2021/08/21 01:23:56;;;;;;;4.00;3.03;;;21.00;66.00;;;;;;5035171;28;20036;-77
2021/08/21 01:26:29;;;;;;;4.50;3.22;;;21.00;66.20;;;;;;5017577;28;20052;-76
2021/08/21 01:29:05;;;;;;;3.50;2.88;;;21.00;66.10;;;;;;5036689;28;20025;-77
2021/08/21 01:31:50;;;;;;;3.75;2.85;;;21.00;66.10;;;;;;5051996;28;20117;-77
2021/08/21 01:34:17;;;;;;;3.88;2.80;;;21.00;66.10;;;;;;5052006;28;20043;-76
2021/08/21 01:36:49;;;;;;;4.60;3.28;;;20.90;66.10;;;;;;5034798;28;20074;-76
2021/08/21 01:39:53;;;;;;;3.85;3.00;;;20.90;66.20;;;;;;5030367;28;20053;-76
2021/08/21 01:42:31;;;;;;;5.22;3.08;;;20.80;66.10;;;;;;5047041;28;20374;-76
2021/08/21 01:44:57;;;;;;;4.25;3.15;;;20.90;66.20;;;;;;5051244;28;20048;-76
2021/08/21 01:47:23;;;;;;;3.30;2.65;;;20.80;66.20;;;;;;5031707;28;20022;-78
2021/08/21 01:50:02;;;;;;;4.75;3.03;;;20.80;66.30;;;;;;5035396;28;20040;-77
2021/08/21 01:52:29;;;;;;;4.43;3.05;;;20.80;66.40;;;;;;5039903;28;20072;-76
2021/08/21 01:54:56;;;;;;;3.63;3.10;;;20.70;66.30;;;;;;5049007;28;20132;-76
2021/08/21 01:57:22;;;;;;;4.00;2.92;;;20.70;66.30;;;;;;5015489;28;20112;-76
2021/08/21 02:00:13;;;;;;;3.78;2.72;;;20.70;66.40;;;;;;5051857;28;20033;-77
2021/08/21 02:02:45;;;;;;;3.78;2.80;;;20.60;66.30;;;;;;5051269;28;20036;-76
2021/08/21 02:05:17;;;;;;;3.83;2.97;;;20.60;66.30;;;;;;5035396;28;20033;-77
2021/08/21 02:07:43;;;;;;;4.10;3.08;;;20.60;67.00;;;;;;5014806;28;20032;-77
2021/08/21 02:10:10;;;;;;;4.07;2.95;;;20.60;66.40;;;;;;5028435;28;20047;-76
2021/08/21 02:12:36;;;;;;;3.90;3.00;;;20.50;66.40;;;;;;5050768;28;20063;-77
2021/08/21 02:15:09;;;;;;;3.95;3.17;;;20.50;66.40;;;;;;5051336;28;20040;-76
2021/08/21 02:17:35;;;;;;;4.45;2.97;;;20.50;66.50;;;;;;5050255;28;20025;-76
2021/08/21 02:20:20;;;;;;;4.10;3.08;;;20.50;66.50;;;;;;5023009;28;20381;-77
2021/08/21 02:22:47;;;;;;;3.95;3.08;;;20.50;66.50;;;;;;5034321;28;20037;-77
2021/08/21 02:25:14;;;;;;;3.75;2.92;;;20.40;66.40;;;;;;5034171;28;20128;-77
2021/08/21 02:27:44;;;;;;;3.72;2.95;;;20.40;66.50;;;;;;5017734;28;20021;-77
2021/08/21 02:30:10;;;;;;;3.63;3.00;;;20.30;66.40;;;;;;5034378;28;20037;-77
2021/08/21 02:32:36;;;;;;;4.15;3.08;;;20.40;66.50;;;;;;5030762;28;20029;-77
2021/08/21 02:35:03;;;;;;;4.68;3.08;;;20.30;66.60;;;;;;5039064;28;20061;-77
2021/08/21 02:37:29;;;;;;;9.43;3.33;;;20.30;66.50;;;;;;5032551;28;20034;-77
2021/08/21 02:39:55;;;;;;;3.67;2.80;;;20.30;66.60;;;;;;5017349;28;20098;-77
2021/08/21 02:42:20;;;;;;;3.90;2.95;;;20.30;66.60;;;;;;5050777;28;20040;-77
2021/08/21 02:44:46;;;;;;;4.28;2.90;;;20.20;66.60;;;;;;5030646;28;20466;-77
2021/08/21 02:47:12;;;;;;;3.92;2.85;;;20.20;66.60;;;;;;5048859;28;20041;-77
2021/08/21 02:49:38;;;;;;;4.00;2.90;;;20.20;66.60;;;;;;5016878;28;20120;-77
2021/08/21 02:52:04;;;;;;;4.20;2.85;;;20.20;66.60;;;;;;5050664;28;20579;-77
2021/08/21 02:54:30;;;;;;;4.20;3.10;;;20.10;66.70;;;;;;5033486;28;20075;-76
2021/08/21 02:56:58;;;;;;;3.53;2.65;;;20.10;66.70;;;;;;5050718;28;20082;-77
2021/08/21 02:59:24;;;;;;;3.95;2.70;;;20.10;66.70;;;;;;5050372;28;20021;-76
2021/08/21 03:01:51;;;;;;;3.75;2.95;;;20.10;66.70;;;;;;5049995;28;20481;-76
2021/08/21 03:04:17;;;;;;;3.60;2.60;;;20.10;66.70;;;;;;5030549;28;20481;-76
2021/08/21 03:06:46;;;;;;;3.90;3.03;;;20.00;66.70;;;;;;5034369;28;20032;-76
2021/08/21 03:09:24;;;;;;;4.35;3.05;;;20.00;66.80;;;;;;5035441;28;20508;-78
2021/08/21 03:11:51;;;;;;;4.88;3.25;;;20.00;66.70;;;;;;5033372;28;20108;-76
2021/08/21 03:14:29;;;;;;;4.20;2.88;;;19.90;66.70;;;;;;5020908;28;20044;-76
2021/08/21 03:16:57;;;;;;;3.72;2.95;;;19.90;66.80;;;;;;5049969;28;20033;-76
2021/08/21 03:19:22;;;;;;;3.63;2.78;;;19.90;66.90;;;;;;5001087;28;20033;-76
2021/08/21 03:21:49;;;;;;;3.78;3.00;;;19.90;66.80;;;;;;5031917;28;20044;-76
2021/08/21 03:24:17;;;;;;;3.78;2.72;;;19.90;66.80;;;;;;5017869;28;20044;-76
2021/08/21 03:26:45;;;;;;;4.60;3.22;;;19.90;66.90;;;;;;5053693;28;20534;-76
2021/08/21 03:29:11;;;;;;;3.97;2.95;;;19.80;66.90;;;;;;5037597;28;20108;-76
2021/08/21 03:31:39;;;;;;;3.83;2.83;;;19.80;66.90;;;;;;5037610;28;20538;-76
2021/08/21 03:34:05;;;;;;;3.90;2.80;;;19.80;67.00;;;;;;5037228;28;20153;-76
2021/08/21 03:36:32;;;;;;;3.60;2.75;;;19.80;67.00;;;;;;5054111;28;20032;-76
2021/08/21 03:38:58;;;;;;;4.38;3.15;;;19.80;67.10;;;;;;5036354;28;20041;-76
2021/08/21 03:41:24;;;;;;;4.10;2.95;;;19.70;67.10;;;;;;5054172;28;20021;-76
2021/08/21 03:44:04;;;;;;;3.60;2.67;;;19.70;67.10;;;;;;5039467;28;20041;-76
2021/08/21 03:46:31;;;;;;;3.75;2.88;;;19.70;67.20;;;;;;5037439;28;20040;-76
2021/08/21 03:48:57;;;;;;;4.65;3.08;;;19.70;67.30;;;;;;5036754;28;20151;-76
2021/08/21 03:51:26;;;;;;;3.53;2.90;;;19.70;67.30;;;;;;5053983;28;20029;-76
2021/08/21 03:53:53;;;;;;;3.60;2.88;;;19.70;67.30;;;;;;5052999;28;20061;-76
2021/08/21 03:56:19;;;;;;;4.75;3.35;;;19.60;67.30;;;;;;5054076;28;20116;-76
2021/08/21 03:58:54;;;;;;;3.22;2.53;;;19.60;67.40;;;;;;5022914;28;20036;-77
2021/08/21 04:01:20;;;;;;;4.28;3.00;;;19.60;67.40;;;;;;5037337;28;20103;-77
2021/08/21 04:03:51;;;;;;;3.97;2.83;;;19.60;67.40;;;;;;5034420;28;20565;-76
2021/08/21 04:06:19;;;;;;;4.18;3.05;;;19.60;67.40;;;;;;5037335;28;20029;-76
2021/08/21 04:08:45;;;;;;;3.20;2.60;;;19.60;68.20;;;;;;5036493;28;20037;-77
2021/08/21 04:11:19;;;;;;;4.30;2.60;;;19.60;67.60;;;;;;5022817;28;20067;-77
2021/08/21 04:14:06;;;;;;;3.33;2.78;;;19.60;67.60;;;;;;5038570;28;20046;-75
2021/08/21 04:16:32;;;;;;;3.63;2.75;;;19.50;67.50;;;;;;5004192;28;20067;-76
2021/08/21 04:18:57;;;;;;;3.78;2.75;;;19.50;67.60;;;;;;5003323;28;20037;-77
2021/08/21 04:21:26;;;;;;;4.03;3.13;;;19.50;67.80;;;;;;5034102;28;20493;-76
2021/08/21 04:23:53;;;;;;;3.58;2.70;;;19.50;67.80;;;;;;5041244;28;20045;-76
2021/08/21 04:26:20;;;;;;;3.92;2.75;;;19.50;67.70;;;;;;5004217;28;20029;-76
2021/08/21 04:28:47;;;;;;;3.45;2.63;;;19.50;67.80;;;;;;5020035;28;20398;-76
2021/08/21 04:31:13;;;;;;;4.20;3.10;;;19.50;67.80;;;;;;5052543;28;20057;-78
2021/08/21 04:33:39;;;;;;;3.10;2.53;;;19.50;67.90;;;;;;5016950;28;20474;-76
2021/08/21 04:36:07;;;;;;;3.70;2.70;;;19.50;67.90;;;;;;5032598;28;20045;-76
2021/08/21 04:38:37;;;;;;;3.85;2.80;;;19.50;67.90;;;;;;5033184;28;20064;-76
2021/08/21 04:41:04;;;;;;;3.95;2.97;;;19.50;67.90;;;;;;5031302;28;20033;-75
2021/08/21 04:43:30;;;;;;;3.50;2.70;;;19.50;68.00;;;;;;5054022;28;20492;-76
2021/08/21 04:45:56;;;;;;;4.40;2.95;;;19.50;68.00;;;;;;5052551;28;20029;-76
2021/08/21 04:48:22;;;;;;;3.92;2.90;;;19.50;68.00;;;;;;5052484;28;20029;-76
2021/08/21 04:50:50;;;;;;;4.15;2.80;;;19.50;68.00;;;;;;5032730;28;20136;-76
2021/08/21 04:53:15;;;;;;;3.33;2.50;;;19.50;68.00;;;;;;5051147;28;20060;-76
2021/08/21 04:55:44;;;;;;;4.05;2.67;;;19.50;68.10;;;;;;5016967;28;20099;-76
2021/08/21 04:58:11;;;;;;;3.85;2.80;;;19.50;68.10;;;;;;5052544;28;20037;-76
2021/08/21 05:00:37;;;;;;;4.18;2.72;;;19.50;68.20;;;;;;5019839;28;20404;-76
2021/08/21 05:03:11;;;;;;;3.70;2.85;;;19.50;68.20;;;;;;5052533;28;20132;-76
2021/08/21 05:05:38;;;;;;;2.95;2.50;;;19.50;68.10;;;;;;5036238;28;20029;-77
2021/08/21 05:08:04;;;;;;;3.72;2.88;;;19.50;68.20;;;;;;5019444;28;20033;-77
2021/08/21 05:10:31;;;;;;;4.30;3.00;;;19.40;68.20;;;;;;5052388;28;20033;-76
2021/08/21 05:12:57;;;;;;;3.95;2.88;;;19.40;68.30;;;;;;4999627;28;20041;-76
2021/08/21 05:15:23;;;;;;;3.83;3.03;;;19.40;68.20;;;;;;5016938;28;20049;-76
2021/08/21 05:18:11;;;;;;;4.13;2.78;;;19.40;68.20;;;;;;5051510;28;20574;-75
2021/08/21 05:20:52;;;;;;;3.67;2.85;;;19.40;68.20;;;;;;5031441;28;20481;-77
2021/08/21 05:23:19;;;;;;;3.35;2.60;;;19.40;68.20;;;;;;5051782;28;20127;-77
2021/08/21 05:25:47;;;;;;;3.15;2.58;;;19.40;68.30;;;;;;5052238;28;20116;-76
2021/08/21 05:28:15;;;;;;;3.03;2.40;;;19.40;68.30;;;;;;5051650;28;20029;-76
2021/08/21 05:30:42;;;;;;;3.65;2.70;;;19.40;68.30;;;;;;5035481;28;20492;-76
2021/08/21 05:33:10;;;;;;;3.47;2.78;;;19.40;68.40;;;;;;5053133;28;20143;-76
2021/08/21 05:35:36;;;;;;;3.53;2.65;;;19.40;68.40;;;;;;5034825;28;20044;-77
2021/08/21 05:38:03;;;;;;;3.78;2.90;;;19.40;68.40;;;;;;5052945;28;20057;-76
2021/08/21 05:40:30;;;;;;;3.08;2.33;;;19.40;68.40;;;;;;5034945;28;20384;-75
2021/08/21 05:42:56;;;;;;;4.50;3.00;;;19.40;68.50;;;;;;5051417;28;20043;-75
2021/08/21 05:45:22;;;;;;;3.83;2.90;;;19.40;68.50;;;;;;5051413;28;20033;-76
2021/08/21 05:47:48;;;;;;;3.50;2.83;;;19.40;68.50;;;;;;5032294;28;20056;-76
2021/08/21 05:50:14;;;;;;;3.13;2.40;;;19.40;68.60;;;;;;5015185;28;20029;-75
2021/08/21 05:52:40;;;;;;;3.30;2.60;;;19.40;68.50;;;;;;5035001;28;20118;-75
2021/08/21 05:55:06;;;;;;;3.15;2.40;;;19.40;68.50;;;;;;5052645;28;20033;-75
2021/08/21 05:57:44;;;;;;;3.80;2.88;;;19.40;68.50;;;;;;5036559;28;20116;-75
2021/08/21 06:00:11;;;;;;;3.13;2.47;;;19.40;68.50;;;;;;5052859;28;20128;-76
2021/08/21 06:02:40;;;;;;;3.78;2.60;;;19.40;68.60;;;;;;5034796;28;20486;-76
2021/08/21 06:05:06;;;;;;;3.08;2.38;;;19.50;68.60;;;;;;5017819;28;20029;-76
2021/08/21 06:07:32;;;;;;;3.42;2.65;;;19.40;68.70;;;;;;5051144;28;20477;-76
2021/08/21 06:10:04;;;;;;;3.83;2.78;;;19.40;68.60;;;;;;5034999;28;20094;-77
2021/08/21 06:12:30;;;;;;;2.83;2.25;;;19.40;68.60;;;;;;5034360;28;20037;-76
2021/08/21 06:14:56;;;;;;;3.60;2.67;;;19.40;69.30;;;;;;5034847;28;20033;-76
2021/08/21 06:17:21;;;;;;;3.60;2.72;;;19.50;68.70;;;;;;5031294;28;20033;-76
2021/08/21 06:19:47;;;;;;;3.53;3.00;;;19.50;68.70;;;;;;5034612;28;20504;-75
2021/08/21 06:22:13;;;;;;;3.50;2.70;;;19.50;68.80;;;;;;5033740;28;20402;-75
2021/08/21 06:24:41;;;;;;;3.92;2.72;;;19.50;68.70;;;;;;5051209;28;20102;-75
2021/08/21 06:27:08;;;;;;;4.20;2.97;;;19.50;68.80;;;;;;5052242;28;20473;-75
2021/08/21 06:29:37;;;;;;;3.63;2.75;;;19.50;68.80;;;;;;5050647;28;20552;-76
2021/08/21 06:32:04;;;;;;;4.20;3.03;;;19.50;68.80;;;;;;5050728;28;20491;-76
2021/08/21 06:34:31;;;;;;;4.28;3.03;;;19.50;68.80;;;;;;5031263;28;20034;-76
2021/08/21 06:37:00;;;;;;;3.95;2.92;;;19.50;68.80;;;;;;5042636;28;20029;-77
2021/08/21 06:39:26;;;;;;;3.35;2.40;;;19.50;68.90;;;;;;5052190;28;20028;-75
2021/08/21 06:41:52;;;;;;;3.95;2.85;;;19.50;68.80;;;;;;5051718;28;20400;-76
2021/08/21 06:44:18;;;;;;;3.80;2.75;;;19.50;68.90;;;;;;5050641;28;20033;-76
2021/08/21 06:46:44;;;;;;;3.88;2.90;;;19.50;68.90;;;;;;5033949;28;20025;-75
2021/08/21 06:49:11;;;;;;;3.40;2.53;;;19.60;69.00;;;;;;5033686;28;20087;-75
2021/08/21 06:51:36;;;;;;;4.05;3.13;;;19.60;69.00;;;;;;5031219;28;20033;-76
2021/08/21 06:54:02;;;;;;;4.18;3.00;;;19.60;69.00;;;;;;5049753;28;20493;-75
2021/08/21 06:56:28;;;;;;;4.25;2.78;;;19.60;68.90;;;;;;5051059;28;20037;-76
2021/08/21 06:58:54;;;;;;;4.10;3.13;;;19.60;69.00;;;;;;5049952;28;20033;-75
2021/08/21 07:01:19;;;;;;;3.83;2.85;;;19.60;69.00;;;;;;5049733;28;20428;-76
2021/08/21 07:03:45;;;;;;;4.40;3.15;;;19.70;69.00;;;;;;5050621;28;20036;-75
2021/08/21 07:06:11;;;;;;;4.25;3.15;;;19.70;69.00;;;;;;5049670;28;20539;-75
2021/08/21 07:08:36;;;;;;;4.38;2.92;;;19.70;69.00;;;;;;5050499;28;20484;-75
2021/08/21 07:11:03;;;;;;;3.75;2.78;;;19.70;69.00;;;;;;5049735;28;20037;-75
2021/08/21 07:13:28;;;;;;;5.18;3.58;;;19.70;69.00;;;;;;5050268;28;20029;-76
2021/08/21 07:15:54;;;;;;;5.00;3.42;;;19.70;69.00;;;;;;5033784;28;20535;-75
2021/08/21 07:18:20;;;;;;;4.38;2.90;;;19.70;69.10;;;;;;5049619;28;20058;-75
2021/08/21 07:20:46;;;;;;;4.50;3.17;;;19.80;69.10;;;;;;5033758;28;20025;-75
2021/08/21 07:23:12;;;;;;;4.53;3.20;;;19.80;69.10;;;;;;5030369;28;20029;-76
2021/08/21 07:25:37;;;;;;;4.90;3.45;;;19.80;69.00;;;;;;5033574;28;20477;-76
2021/08/21 07:28:04;;;;;;;4.85;3.38;;;19.80;69.10;;;;;;5013731;28;20164;-76
2021/08/21 07:30:29;;;;;;;4.28;3.53;;;19.80;69.00;;;;;;5049778;28;20052;-75
2021/08/21 07:32:55;;;;;;;4.80;3.50;;;19.80;69.00;;;;;;5030367;28;20107;-75
2021/08/21 07:35:21;;;;;;;4.70;3.50;;;19.90;69.00;;;;;;5045514;28;20200;-77
2021/08/21 07:37:47;;;;;;;5.10;3.63;;;19.90;69.00;;;;;;5033730;28;20044;-75
2021/08/21 07:40:13;;;;;;;4.47;3.17;;;19.90;69.00;;;;;;5049767;28;20347;-76
2021/08/21 07:42:39;;;;;;;5.30;3.60;;;20.00;69.00;;;;;;5049534;28;20393;-77
2021/08/21 07:45:06;;;;;;;4.70;3.28;;;20.00;69.00;;;;;;5049411;28;20028;-76
2021/08/21 07:47:32;;;;;;;5.85;4.00;;;20.00;69.00;;;;;;5050018;28;20156;-77
2021/08/21 07:49:57;;;;;;;5.53;3.58;;;20.00;68.90;;;;;;5049695;28;20125;-76
2021/08/21 07:52:23;;;;;;;4.55;3.35;;;20.00;69.00;;;;;;5013237;28;20029;-76
2021/08/21 07:54:49;;;;;;;4.97;3.60;;;20.10;69.00;;;;;;5048507;28;20470;-77
2021/08/21 07:57:15;;;;;;;5.13;3.75;;;20.10;68.90;;;;;;5016676;28;20060;-76
2021/08/21 07:59:40;;;;;;;5.53;3.47;;;20.10;69.00;;;;;;5050024;28;20052;-77
2021/08/21 08:02:09;;;;;;;5.15;3.70;;;20.20;69.00;;;;;;5049052;28;20077;-77
2021/08/21 08:04:35;;;;;;;5.05;3.47;;;20.20;69.00;;;;;;5052240;28;20112;-75
2021/08/21 08:07:01;;;;;;;5.57;3.67;;;20.20;69.00;;;;;;5047897;28;20108;-76
2021/08/21 08:09:28;;;;;;;5.60;3.75;;;20.20;69.00;;;;;;5050839;28;20171;-75
2021/08/21 08:11:54;;;;;;;5.80;4.03;;;20.30;69.00;;;;;;5014371;28;20061;-76
2021/08/21 08:14:20;;;;;;;6.00;4.10;;;20.30;69.00;;;;;;5052778;28;20037;-76
2021/08/21 08:16:46;;;;;;;5.30;4.00;;;20.30;68.90;;;;;;5020319;28;20025;-77
2021/08/21 08:19:11;;;;;;;5.85;4.18;;;20.40;69.00;;;;;;5034312;28;20429;-76
2021/08/21 08:21:37;;;;;;;5.68;3.97;;;20.40;69.00;;;;;;5020117;28;20448;-76
2021/08/21 08:24:03;;;;;;;5.93;4.28;;;20.50;69.00;;;;;;5052941;28;20063;-76
2021/08/21 08:26:29;;;;;;;5.82;4.30;;;20.50;68.90;;;;;;5035485;28;20037;-76
2021/08/21 08:28:54;;;;;;;5.60;3.90;;;20.50;69.00;;;;;;5036462;28;20050;-77
2021/08/21 08:31:20;;;;;;;5.85;4.03;;;20.60;69.00;;;;;;5035828;28;20029;-76
2021/08/21 08:33:46;;;;;;;6.68;4.43;;;20.60;69.00;;;;;;5036286;28;20102;-76
2021/08/21 08:36:11;;;;;;;6.00;4.00;;;20.60;68.90;;;;;;5032876;28;20497;-76
2021/08/21 08:38:37;;;;;;;6.32;4.70;;;20.70;68.90;;;;;;5034293;28;20037;-76
2021/08/21 08:41:05;;;;;;;5.72;4.32;;;20.70;68.90;;;;;;5036432;28;20025;-76
2021/08/21 08:43:31;;;;;;;7.15;4.32;;;20.80;68.90;;;;;;5019490;28;20408;-77
2021/08/21 08:45:57;;;;;;;5.80;4.05;;;20.80;68.90;;;;;;5019621;28;20055;-76
2021/08/21 08:48:23;;;;;;;5.75;4.07;;;20.90;68.90;;;;;;5035558;28;20474;-76
2021/08/21 08:50:49;;;;;;;5.63;4.22;;;20.90;68.80;;;;;;5035713;28;20400;-76
2021/08/21 08:53:14;;;;;;;5.85;4.38;;;21.00;68.80;;;;;;5051730;28;20098;-76
2021/08/21 08:55:40;;;;;;;6.20;4.30;;;21.00;68.80;;;;;;5052384;28;20052;-77
2021/08/21 08:58:06;;;;;;;6.60;4.53;;;21.10;68.80;;;;;;5053928;28;20025;-76
2021/08/21 09:00:33;;;;;;;6.13;4.40;;;21.10;68.70;;;;;;5052464;28;20025;-76
2021/08/21 09:03:03;;;;;;;6.22;4.70;;;21.20;68.80;;;;;;5053556;28;20037;-76
2021/08/21 09:05:36;;;;;;;6.65;4.47;;;21.20;68.70;;;;;;5052084;28;20095;-76
2021/08/21 09:08:02;;;;;;;5.93;4.55;;;21.30;68.80;;;;;;5052257;28;20025;-76
2021/08/21 09:10:30;;;;;;;6.30;4.70;;;21.30;68.70;;;;;;5032203;28;20429;-76
2021/08/21 09:13:15;;;;;;;6.13;4.63;;;21.40;68.80;;;;;;5050043;28;20112;-77
2021/08/21 09:15:50;;;;;;;5.90;4.53;;;21.50;68.90;;;;;;5053558;28;20057;-76
2021/08/21 09:18:17;;;;;;;6.10;4.22;;;21.50;68.70;;;;;;5051824;28;20033;-77
2021/08/21 09:20:49;;;;;;;6.72;4.47;;;21.60;68.70;;;;;;5052284;28;20029;-77
2021/08/21 09:23:16;;;;;;;5.63;4.20;;;21.60;68.70;;;;;;5052485;28;20039;-77
2021/08/21 09:25:42;;;;;;;6.50;4.78;;;21.70;68.70;;;;;;5053429;28;20051;-76
2021/08/21 09:28:22;;;;;;;5.70;3.80;;;21.70;68.60;;;;;;5051460;28;20029;-76
2021/08/21 09:31:00;;;;;;;6.25;4.25;;;21.80;68.70;;;;;;5035368;28;20362;-76
2021/08/21 09:33:25;;;;;;;6.43;4.35;;;21.80;68.50;;;;;;5051707;28;20032;-76
2021/08/21 09:35:51;;;;;;;6.32;4.32;;;21.90;68.50;;;;;;5018587;28;20116;-76
2021/08/21 09:38:17;;;;;;;6.43;4.20;;;21.90;68.40;;;;;;5018162;28;20083;-77
2021/08/21 09:40:42;;;;;;;5.50;3.85;;;22.00;68.50;;;;;;5018774;28;20393;-76
2021/08/21 09:43:22;;;;;;;5.28;4.15;;;22.10;68.50;;;;;;5035147;28;20037;-76
2021/08/21 09:46:05;;;;;;;5.60;4.25;;;22.10;68.50;;;;;;5052636;28;20031;-77
2021/08/21 09:48:31;;;;;;;6.20;4.28;;;22.20;68.40;;;;;;5023966;28;20021;-76
2021/08/21 09:50:57;;;;;;;6.40;4.60;;;22.20;68.30;;;;;;5022518;28;20490;-77
2021/08/21 09:53:36;;;;;;;5.65;4.40;;;22.30;68.30;;;;;;5050837;28;20064;-77
2021/08/21 09:56:12;;;;;;;5.85;4.60;;;22.40;68.50;;;;;;5051989;28;20055;-78
2021/08/21 09:58:37;;;;;;;5.55;4.05;;;22.40;68.40;;;;;;5023899;28;20098;-77
2021/08/21 10:01:05;;;;;;;5.70;4.45;;;22.50;68.30;;;;;;5047443;28;20036;-77
2021/08/21 10:03:32;;;;;;;6.75;4.32;;;22.60;68.30;;;;;;5033958;28;20041;-76
2021/08/21 10:05:58;;;;;;;5.65;4.13;;;22.60;68.40;;;;;;5018065;28;20401;-77
2021/08/21 10:08:27;;;;;;;5.90;4.15;;;22.70;68.30;;;;;;5034223;28;20067;-76
2021/08/21 10:10:54;;;;;;;5.65;4.18;;;22.80;68.40;;;;;;5051027;28;20029;-77
2021/08/21 10:13:30;;;;;;;5.15;4.03;;;22.90;68.30;;;;;;5031406;28;20045;-78
2021/08/21 10:15:56;;;;;;;5.15;3.78;;;22.90;68.10;;;;;;5034267;28;20044;-76
2021/08/21 10:18:23;;;;;;;5.47;3.78;;;23.00;68.00;;;;;;5050819;28;20055;-77
2021/08/21 10:20:50;;;;;;;5.95;4.22;;;23.10;68.10;;;;;;5018121;28;20032;-77
2021/08/21 10:23:23;;;;;;;4.85;3.55;;;23.20;68.20;;;;;;5017897;28;20056;-76
2021/08/21 10:26:03;;;;;;;5.05;3.47;;;23.30;68.00;;;;;;5043458;28;20032;-77
2021/08/21 10:28:33;;;;;;;4.38;3.33;;;23.40;68.00;;;;;;5051974;28;20029;-76
2021/08/21 10:30:59;;;;;;;5.22;3.90;;;23.50;67.80;;;;;;5052031;28;20091;-77
2021/08/21 10:33:28;;;;;;;5.00;3.47;;;23.60;67.70;;;;;;5050277;28;20370;-77
2021/08/21 10:35:55;;;;;;;4.90;3.70;;;23.60;67.40;;;;;;5033330;28;20053;-77
2021/08/21 10:38:33;;;;;;;4.85;3.72;;;23.70;67.40;;;;;;5030944;28;20042;-76
2021/08/21 10:41:07;;;;;;;4.85;3.17;;;23.80;67.40;;;;;;5031570;28;20497;-78
2021/08/21 10:43:54;;;;;;;4.45;3.25;;;23.90;67.30;;;;;;5048801;28;20119;-77
2021/08/21 10:46:29;;;;;;;4.00;2.83;;;24.00;67.30;;;;;;5025713;28;20033;-77
2021/08/21 10:48:56;;;;;;;4.03;3.13;;;24.10;67.10;;;;;;5048615;28;20037;-77
2021/08/21 10:51:36;;;;;;;4.53;3.53;;;24.20;66.90;;;;;;5050014;28;20065;-77
2021/08/21 10:54:24;;;;;;;4.00;2.90;;;24.20;67.00;;;;;;5050278;28;20053;-77
2021/08/21 10:56:54;;;;;;;4.38;2.85;;;24.30;67.00;;;;;;5050057;28;20076;-77
2021/08/21 10:59:42;;;;;;;3.67;2.72;;;24.40;66.80;;;;;;5051883;28;20075;-77
2021/08/21 11:02:26;;;;;;;4.28;2.80;;;24.50;66.90;;;;;;5050755;28;20485;-77
2021/08/21 11:04:56;;;;;;;3.10;2.40;;;24.60;66.80;;;;;;5050084;28;20079;-78
2021/08/21 11:07:43;;;;;;;4.03;2.72;;;24.60;66.60;;;;;;5050379;28;20021;-77
2021/08/21 11:10:23;;;;;;;3.65;2.58;;;24.70;66.70;;;;;;5044258;28;20033;-77
2021/08/21 11:12:52;;;;;;;3.00;2.33;;;24.80;66.60;;;;;;5049651;28;20238;-76
2021/08/21 11:15:21;;;;;;;3.25;2.42;;;24.80;66.60;;;;;;5017474;28;20037;-77
2021/08/21 11:17:48;;;;;;;4.13;2.72;;;24.90;66.60;;;;;;5049738;28;20068;-77
2021/08/21 11:20:36;;;;;;;2.92;2.13;;;25.00;66.70;;;;;;5030751;28;20029;-77
2021/08/21 11:23:08;;;;;;;3.10;2.20;;;25.00;66.90;;;;;;5033418;28;20430;-78
2021/08/21 11:25:35;;;;;;;3.03;2.20;;;25.10;66.70;;;;;;5051365;28;20025;-78
2021/08/21 11:28:05;;;;;;;2.75;2.20;;;25.20;66.80;;;;;;5050073;28;20021;-77
2021/08/21 11:30:35;;;;;;;2.85;1.90;;;25.20;67.00;;;;;;5050170;28;20025;-78
2021/08/21 11:33:06;;;;;;;3.22;1.98;;;25.30;67.00;;;;;;5050947;28;20032;-77
2021/08/21 11:35:35;;;;;;;2.45;1.95;;;25.30;67.30;;;;;;5050012;28;20478;-77
2021/08/21 11:38:13;;;;;;;2.65;2.08;;;25.40;67.40;;;;;;5050941;28;20025;-77
2021/08/21 11:40:48;;;;;;;2.35;1.85;;;25.40;67.50;;;;;;5050801;28;20021;-77
2021/08/21 11:43:16;;;;;;;3.63;2.33;;;25.40;67.50;;;;;;5033314;28;20663;-76
2021/08/21 11:45:43;;;;;;;3.20;2.05;;;25.50;67.70;;;;;;5050129;28;20473;-77
2021/08/21 11:48:10;;;;;;;2.92;2.20;;;25.50;67.70;;;;;;5053589;28;20382;-76
2021/08/21 11:50:38;;;;;;;2.92;1.98;;;25.50;67.80;;;;;;5036998;28;20051;-76
2021/08/21 11:53:24;;;;;;;4.28;1.95;;;25.60;67.70;;;;;;5053110;28;20041;-78
2021/08/21 11:55:52;;;;;;;2.97;2.05;;;25.60;67.90;;;;;;5052850;28;20041;-76
2021/08/21 11:58:30;;;;;;;3.15;2.10;;;25.70;67.80;;;;;;5053209;28;20437;-77
2021/08/21 12:01:02;;;;;;;3.47;1.90;;;25.70;67.90;;;;;;5033500;28;20553;-77
2021/08/21 12:06:28;;;;;;;3.17;2.00;;;25.80;67.70;;;;;;5053435;28;20039;-77
2021/08/21 12:09:13;;;;;;;2.15;1.73;;;25.80;67.80;;;;;;5054420;28;20083;-76
2021/08/21 12:11:44;;;;;;;3.50;2.20;;;25.90;67.80;;;;;;5037538;28;20029;-76
2021/08/21 12:14:11;;;;;;;2.83;1.80;;;25.90;67.50;;;;;;5036237;28;20048;-77
2021/08/21 12:16:39;;;;;;;2.38;1.80;;;25.90;67.30;;;;;;5033046;28;20061;-76
2021/08/21 12:19:05;;;;;;;2.72;1.92;;;26.00;67.20;;;;;;5051322;28;20091;-77
2021/08/21 12:21:32;;;;;;;2.25;1.77;;;26.00;67.00;;;;;;5046723;28;20108;-76
2021/08/21 12:23:58;;;;;;;2.75;1.95;;;26.00;66.90;;;;;;5052442;28;20514;-76
2021/08/21 12:26:38;;;;;;;2.53;1.85;;;26.00;66.60;;;;;;5036588;28;20048;-76
2021/08/21 12:29:19;;;;;;;2.92;2.05;;;26.10;66.60;;;;;;5053354;28;20036;-76
2021/08/21 12:31:45;;;;;;;3.05;2.08;;;26.10;66.50;;;;;;5046885;28;20469;-77
2021/08/21 12:34:16;;;;;;;2.85;2.05;;;26.10;66.30;;;;;;5053750;28;20045;-77
2021/08/21 12:36:43;;;;;;;3.00;2.08;;;26.10;66.20;;;;;;5052438;28;20028;-77
2021/08/21 12:39:18;;;;;;;2.67;2.00;;;26.20;66.10;;;;;;5052991;28;20071;-77
2021/08/21 12:41:56;;;;;;;2.53;1.95;;;26.20;66.10;;;;;;5046110;28;20029;-77
2021/08/21 12:44:31;;;;;;;3.03;2.00;;;26.20;66.10;;;;;;5052528;28;20056;-76
2021/08/21 12:47:02;;;;;;;2.35;1.90;;;26.30;66.10;;;;;;5053919;28;20033;-76
2021/08/21 12:49:29;;;;;;;3.08;2.20;;;26.30;66.00;;;;;;5052720;28;20028;-76
2021/08/21 12:51:57;;;;;;;2.65;1.98;;;26.30;66.00;;;;;;5035755;28;20362;-77
2021/08/21 12:54:28;;;;;;;2.42;1.80;;;26.30;65.80;;;;;;5053216;28;20080;-76
2021/08/21 12:57:14;;;;;;;2.65;2.00;;;26.30;65.80;;;;;;5019402;28;20043;-77
2021/08/21 12:59:42;;;;;;;2.65;1.88;;;26.40;65.80;;;;;;5045466;28;20025;-76